Hanzhong, China
Current Conditions -  °F | °C
As of 2:00 AM on Friday 31 Oct 2014 (Local Time) from ZLXY Reporting Station
Light Rain Light Rain  
Wind Chill: 12°   Ceiling: 5000
Heat Index: 12°   Visibility: 1.2mi
Dew Point: 10°   Wind: 2mph
Humidity: 88%   Direction: 300°WNW
Pressure: 30.12"   Gusts: NA
Location:  33.13°N, 107.03°E
Report Text: ZLXY 301800Z 30001MPS 2000 -RA BR OVC050 12/10 Q1020 NOSIG
Loading
Personal Weather Stations






























Interactive Weather Map
Tropical Storm Tracking
New forecast layout! Learn more

10-Day Weather Forecast

Advertisements
Track Severe Weather on mobile